This is the latest recevied weather packets stored in our database for station/object KY4EF. If no packets are shown the sender has not sent any weather packets the latest 10 day(s).
| Time | Temp. | Humidity | Pressure | Rain* | Wind** | Luminosity | Snow |
|---|---|---|---|---|---|---|---|
| 1777776833 | 6.67° C | 82% | 1015 hPa | 0 mm | - | 0 W/m² | - |
| 1777776530 | 6.67° C | 82% | 1015.1 hPa | 0 mm | - | 0 W/m² | - |
| 1777776221 | 6.67° C | 82% | 1015 hPa | 0 mm | - | 0 W/m² | - |
| 1777775917 | 6.67° C | 81% | 1015.1 hPa | 0 mm | - | 0 W/m² | - |
| 1777775615 | 6.67° C | 81% | 1014.9 hPa | 0 mm | - | 0 W/m² | - |
| 1777775312 | 6.11° C | 81% | 1015 hPa | 0 mm | - | 0 W/m² | - |
| 1777775012 | 6.11° C | 80% | 1015 hPa | 0 mm | - | 0 W/m² | - |
| 1777774708 | 6.67° C | 79% | 1014.8 hPa | 0 mm | - | 0 W/m² | - |
| 1777774405 | 6.67° C | 79% | 1014.8 hPa | 0 mm | - | 0 W/m² | - |
| 1777774102 | 6.67° C | 78% | 1014.8 hPa | 0 mm | - | 0 W/m² | - |
| 1777773496 | 7.22° C | 78% | 1014.6 hPa | 0 mm | - | 0 W/m² | - |
| 1777772889 | 7.22° C | 75% | 1014.4 hPa | 0 mm | - | 0 W/m² | - |
| 1777769253 | 10° C | 61% | 1013.9 hPa | 0 mm | - | 0 W/m² | - |
| 1777768652 | 10° C | 59% | 1013.4 hPa | 0 mm | - | 0 W/m² | - |
| 1777768345 | 10.56° C | 55% | 1013.4 hPa | 0 mm | - | 1 W/m² | - |
| 1777768042 | 11.11° C | 55% | 1013.5 hPa | 0 mm | - | 1 W/m² | - |
| 1777767739 | 11.67° C | 53% | 1013.4 hPa | 0 mm | - | 2 W/m² | - |
| 1777767435 | 11.67° C | 50% | 1013.1 hPa | 0 mm | - | 4 W/m² | - |
| 1777767131 | 11.67° C | 47% | 1013.1 hPa | 0 mm | - | 5 W/m² | - |
| 1777766830 | 12.22° C | 48% | 1013.1 hPa | 0 mm | - | 7 W/m² | - |
| 1777766527 | 12.22° C | 48% | 1013.2 hPa | 0 mm | - | 10 W/m² | - |
| 1777765618 | 12.78° C | 45% | 1012.8 hPa | 0 mm | - | 17 W/m² | - |
| 1777765011 | 12.78° C | 45% | 1012.7 hPa | 0 mm | - | 22 W/m² | - |
| 1777764404 | 13.33° C | 43% | 1012.9 hPa | 0 mm | - | 34 W/m² | - |
| 1777764102 | 13.33° C | 44% | 1012.9 hPa | 0 mm | - | 44 W/m² | - |
* Rain latest hour (hover to see other rain measurements)
** Current wind speed in m/s (hover to see current wind gust speed)